Search for airport 
image banner adimage banner adimage banner ad
image banner ad

5CL9 - Table Mountain Field

Located in Auberry, United States

ICAO - 5CL9, IATA -

Data provided by Airmate  

General information

Coordinates: N37°8'29" W119°30'29"
Elevation is 1280 feet MSL.
Magnetic variation is 15° East
View others Airports in California

Operational data

Special qualification required
Current time UTC:
Current local time:
Weather at : KFAT - Fresno Yosemite Intl ( 45 km )
METAR: KFAT 212253Z VRB03KT 6SM HZ FU BKN130 34/09 A3004 RMK AO2 SLP166 FU BKN130 T03440094 $
TAF: KFAT 211720Z 2118/2218 VRB05KT 6SM HZ FU SCT090 TEMPO 2118/2122 4SM FU BKN090
View NOTAMs / SUP AIP / TFR affecting this airport [VIEW]
Communications frequencies: [VIEW]

Runways:

RWY identifierQFULength (ft)Width (ft)SurfaceLDA (ft)
15200050EARTH
33200050EARTH

Airport contact information

Address: Auberry United States

Satellite view of 5CL9